Time,TemperatureF,DewpointF,PressureIn,WindDirection,WindDirectionDegrees,WindSpeedMPH,WindSpeedGustMPH,Humidity,HourlyPrecipIn,Conditions,Clouds,dailyrainin,SolarRadiationWatts/m^2,SoftwareType,DateUTC
2013-11-29 00:12:00,10.0,6.0,-100.00,SW,233,1.0,2.0,82,0.00,,,0.00,1.000000,,2013-11-29 05:12:00,
2013-11-29 00:22:00,10.0,6.0,-100.00,SW,233,1.0,2.0,82,0.00,,,0.00,1.000000,,2013-11-29 05:22:00,
2013-11-29 00:32:00,10.0,6.0,-100.00,SW,233,1.0,2.0,82,0.00,,,0.00,1.000000,,2013-11-29 05:32:00,
2013-11-29 00:43:00,10.0,6.0,-100.00,SW,233,1.0,2.0,82,0.00,,,0.00,1.000000,,2013-11-29 05:43:00,
2013-11-29 01:12:00,9.0,6.0,-100.00,SW,223,2.0,3.0,86,0.00,,,0.00,1.000000,,2013-11-29 06:12:00,
2013-11-29 01:22:00,9.0,6.0,-100.00,SW,223,2.0,3.0,86,0.00,,,0.00,1.000000,,2013-11-29 06:22:00,
2013-11-29 01:33:00,9.0,6.0,-100.00,SW,223,2.0,3.0,86,0.00,,,0.00,1.000000,,2013-11-29 06:33:00,
2013-11-29 01:42:00,9.0,6.0,-100.00,SW,223,2.0,3.0,86,0.00,,,0.00,1.000000,,2013-11-29 06:42:00,
2013-11-29 02:12:00,9.0,6.0,-100.00,SSW,201,1.0,3.0,86,0.00,,,0.00,1.000000,,2013-11-29 07:12:00,
2013-11-29 02:21:00,9.0,6.0,-100.00,SSW,201,1.0,3.0,86,0.00,,,0.00,1.000000,,2013-11-29 07:21:00,
2013-11-29 02:31:00,9.0,6.0,-100.00,SSW,201,1.0,3.0,86,0.00,,,0.00,1.000000,,2013-11-29 07:31:00,
2013-11-29 02:42:00,9.0,6.0,-100.00,SSW,201,1.0,3.0,86,0.00,,,0.00,1.000000,,2013-11-29 07:42:00,
2013-11-29 03:21:00,7.0,4.0,-100.00,SSE,158,1.0,2.0,88,0.00,,,0.00,1.000000,,2013-11-29 08:21:00,
2013-11-29 03:32:00,7.0,4.0,-100.00,SSE,158,1.0,2.0,88,0.00,,,0.00,1.000000,,2013-11-29 08:32:00,
2013-11-29 03:42:00,7.0,4.0,-100.00,SSE,158,1.0,2.0,88,0.00,,,0.00,1.000000,,2013-11-29 08:42:00,
2013-11-29 04:22:00,7.0,4.0,-100.00,SW,215,1.0,4.0,89,0.00,,,-99.99,1.000000,,2013-11-29 09:22:00,
2013-11-29 04:33:00,7.0,4.0,-100.00,SW,215,1.0,4.0,89,0.00,,,-99.99,1.000000,,2013-11-29 09:33:00,
2013-11-29 04:43:00,7.0,4.0,-100.00,SW,215,1.0,4.0,89,0.00,,,-99.99,1.000000,,2013-11-29 09:43:00,
2013-11-29 05:13:00,10.0,8.0,-100.00,West,264,0.0,1.0,90,0.00,,,0.00,1.000000,,2013-11-29 10:13:00,
2013-11-29 05:23:00,10.0,8.0,-100.00,West,264,0.0,1.0,90,0.00,,,0.00,1.000000,,2013-11-29 10:23:00,
2013-11-29 05:33:00,10.0,8.0,-100.00,West,264,0.0,1.0,90,0.00,,,0.00,1.000000,,2013-11-29 10:33:00,
2013-11-29 05:42:00,10.0,8.0,-100.00,West,264,0.0,1.0,90,0.00,,,0.00,1.000000,,2013-11-29 10:42:00,
2013-11-29 06:12:00,10.0,7.0,-100.00,SSW,196,2.0,3.0,89,0.00,,,0.00,1.000000,,2013-11-29 11:12:00,
2013-11-29 06:22:00,10.0,7.0,-100.00,SSW,196,2.0,3.0,89,0.00,,,0.00,1.000000,,2013-11-29 11:22:00,
2013-11-29 06:33:00,10.0,7.0,-100.00,SSW,196,2.0,3.0,89,0.00,,,0.00,1.000000,,2013-11-29 11:33:00,
2013-11-29 06:42:00,10.0,7.0,-100.00,SSW,196,2.0,3.0,89,0.00,,,0.00,1.000000,,2013-11-29 11:42:00,
2013-11-29 07:12:00,11.0,8.0,-100.00,SSW,197,2.0,6.0,88,0.00,,,0.00,1.000000,,2013-11-29 12:12:00,
2013-11-29 07:22:00,11.0,8.0,-100.00,SSW,197,2.0,6.0,88,0.00,,,0.00,1.000000,,2013-11-29 12:22:00,
2013-11-29 07:32:00,11.0,8.0,-100.00,SSW,197,2.0,6.0,88,0.00,,,0.00,1.000000,,2013-11-29 12:32:00,
2013-11-29 07:42:00,11.0,8.0,-100.00,SSW,197,2.0,6.0,88,0.00,,,0.00,1.000000,,2013-11-29 12:42:00,
2013-11-29 08:11:00,12.0,10.0,-100.00,NE,39,0.0,3.0,90,0.00,,,0.00,1.000000,,2013-11-29 13:11:00,
2013-11-29 08:22:00,12.0,10.0,-100.00,NE,39,0.0,3.0,90,0.00,,,0.00,1.000000,,2013-11-29 13:22:00,
2013-11-29 08:32:00,12.0,10.0,-100.00,NE,39,0.0,3.0,90,0.00,,,0.00,1.000000,,2013-11-29 13:32:00,
2013-11-29 08:42:00,12.0,10.0,-100.00,NE,39,0.0,3.0,90,0.00,,,0.00,1.000000,,2013-11-29 13:42:00,
2013-11-29 09:11:00,11.0,8.0,-100.00,NNE,24,3.0,5.0,89,0.00,,,0.00,4.000000,,2013-11-29 14:11:00,
2013-11-29 09:22:00,11.0,8.0,-100.00,NNE,24,3.0,5.0,89,0.00,,,0.00,4.000000,,2013-11-29 14:22:00,
2013-11-29 09:32:00,11.0,8.0,-100.00,NNE,24,3.0,5.0,89,0.00,,,0.00,4.000000,,2013-11-29 14:32:00,
2013-11-29 09:42:00,11.0,8.0,-100.00,NNE,24,3.0,5.0,89,0.00,,,0.00,4.000000,,2013-11-29 14:42:00,
2013-11-29 10:11:00,17.0,15.0,-100.00,SE,136,2.0,4.0,91,0.00,,,0.00,58.000000,,2013-11-29 15:11:00,
2013-11-29 10:22:00,17.0,15.0,-100.00,SE,136,2.0,4.0,91,0.00,,,0.00,58.000000,,2013-11-29 15:22:00,
2013-11-29 10:33:00,17.0,15.0,-100.00,SE,136,2.0,4.0,91,0.00,,,0.00,58.000000,,2013-11-29 15:33:00,
2013-11-29 10:43:00,17.0,15.0,-100.00,SE,136,2.0,4.0,91,0.00,,,0.00,58.000000,,2013-11-29 15:43:00,
2013-11-29 11:13:00,22.0,18.0,-100.00,SSE,152,6.0,8.0,84,0.00,,,0.00,103.000000,,2013-11-29 16:13:00,
2013-11-29 11:23:00,22.0,18.0,-100.00,SSE,152,6.0,8.0,84,0.00,,,0.00,103.000000,,2013-11-29 16:23:00,
2013-11-29 11:34:00,22.0,18.0,-100.00,SSE,152,6.0,8.0,84,0.00,,,0.00,103.000000,,2013-11-29 16:34:00,
2013-11-29 11:42:00,22.0,18.0,-100.00,SSE,152,6.0,8.0,84,0.00,,,0.00,103.000000,,2013-11-29 16:42:00,
2013-11-29 12:12:00,28.0,17.0,-100.00,South,190,9.0,14.0,64,0.00,,,0.00,237.000000,,2013-11-29 17:12:00,
2013-11-29 12:22:00,28.0,17.0,-100.00,South,190,9.0,14.0,64,0.00,,,0.00,237.000000,,2013-11-29 17:22:00,
2013-11-29 12:33:00,28.0,17.0,-100.00,South,190,9.0,14.0,64,0.00,,,0.00,237.000000,,2013-11-29 17:33:00,
2013-11-29 12:43:00,28.0,17.0,-100.00,South,190,9.0,14.0,64,0.00,,,0.00,237.000000,,2013-11-29 17:43:00,
2013-11-29 13:12:00,30.0,14.0,-100.00,South,178,8.0,18.0,50,0.00,,,0.00,262.000000,,2013-11-29 18:12:00,
2013-11-29 13:22:00,30.0,14.0,-100.00,South,178,8.0,18.0,50,0.00,,,0.00,262.000000,,2013-11-29 18:22:00,
2013-11-29 13:33:00,30.0,14.0,-100.00,South,178,8.0,18.0,50,0.00,,,0.00,262.000000,,2013-11-29 18:33:00,
2013-11-29 13:42:00,30.0,14.0,-100.00,South,178,8.0,18.0,50,0.00,,,0.00,262.000000,,2013-11-29 18:42:00,
2013-11-29 14:11:00,34.0,16.0,-100.00,South,174,9.0,15.0,48,0.00,,,0.00,372.000000,,2013-11-29 19:11:00,
2013-11-29 14:22:00,34.0,16.0,-100.00,South,174,9.0,15.0,48,0.00,,,0.00,372.000000,,2013-11-29 19:22:00,
2013-11-29 14:32:00,34.0,16.0,-100.00,South,174,9.0,15.0,48,0.00,,,0.00,372.000000,,2013-11-29 19:32:00,
2013-11-29 14:42:00,34.0,16.0,-100.00,South,174,9.0,15.0,48,0.00,,,0.00,372.000000,,2013-11-29 19:42:00,
2013-11-29 15:22:00,33.0,15.0,-100.00,South,180,10.0,19.0,47,0.00,,,0.00,220.000000,,2013-11-29 20:22:00,
2013-11-29 15:32:00,33.0,15.0,-100.00,South,180,10.0,19.0,47,0.00,,,0.00,220.000000,,2013-11-29 20:32:00,
2013-11-29 15:42:00,33.0,15.0,-100.00,South,180,10.0,19.0,47,0.00,,,0.00,220.000000,,2013-11-29 20:42:00,
2013-11-29 16:12:00,33.0,16.0,-100.00,South,169,11.0,20.0,49,0.00,,,0.00,153.000000,,2013-11-29 21:12:00,
2013-11-29 16:22:00,33.0,16.0,-100.00,South,169,11.0,20.0,49,0.00,,,0.00,153.000000,,2013-11-29 21:22:00,
2013-11-29 16:33:00,33.0,16.0,-100.00,South,169,11.0,20.0,49,0.00,,,0.00,153.000000,,2013-11-29 21:33:00,
2013-11-29 16:43:00,33.0,16.0,-100.00,South,169,11.0,20.0,49,0.00,,,0.00,153.000000,,2013-11-29 21:43:00,
2013-11-29 17:23:00,33.0,17.0,-100.00,SSE,161,9.0,17.0,51,0.00,,,0.00,72.000000,,2013-11-29 22:23:00,
2013-11-29 17:33:00,33.0,17.0,-100.00,SSE,161,9.0,17.0,51,0.00,,,0.00,72.000000,,2013-11-29 22:33:00,
2013-11-29 17:42:00,33.0,17.0,-100.00,SSE,161,9.0,17.0,51,0.00,,,0.00,72.000000,,2013-11-29 22:42:00,
2013-11-29 18:12:00,31.0,15.0,-100.00,SSE,148,6.0,17.0,52,0.00,,,0.00,23.000000,,2013-11-29 23:12:00,
2013-11-29 18:22:00,31.0,15.0,-100.00,SSE,148,6.0,17.0,52,0.00,,,0.00,23.000000,,2013-11-29 23:22:00,
2013-11-29 18:33:00,31.0,15.0,-100.00,SSE,148,6.0,17.0,52,0.00,,,0.00,23.000000,,2013-11-29 23:33:00,
2013-11-29 18:42:00,31.0,15.0,-100.00,SSE,148,6.0,17.0,52,0.00,,,0.00,23.000000,,2013-11-29 23:42:00,
2013-11-29 19:11:00,30.0,15.0,-100.00,SSE,148,6.0,12.0,54,0.00,,,0.00,1.000000,,2013-11-30 00:11:00,
2013-11-29 19:22:00,30.0,15.0,-100.00,SSE,148,6.0,12.0,54,0.00,,,0.00,1.000000,,2013-11-30 00:22:00,
2013-11-29 19:32:00,30.0,15.0,-100.00,SSE,148,6.0,12.0,54,0.00,,,0.00,1.000000,,2013-11-30 00:32:00,
2013-11-29 19:42:00,30.0,15.0,-100.00,SSE,148,6.0,12.0,54,0.00,,,0.00,1.000000,,2013-11-30 00:42:00,
2013-11-29 20:11:00,30.0,17.0,-100.00,South,169,9.0,16.0,57,0.00,,,0.00,1.000000,,2013-11-30 01:11:00,
2013-11-29 20:21:00,30.0,17.0,-100.00,South,169,9.0,16.0,57,0.00,,,0.00,1.000000,,2013-11-30 01:21:00,
2013-11-29 20:32:00,30.0,17.0,-100.00,South,169,9.0,16.0,57,0.00,,,0.00,1.000000,,2013-11-30 01:32:00,
2013-11-29 20:42:00,30.0,17.0,-100.00,South,169,9.0,16.0,57,0.00,,,0.00,1.000000,,2013-11-30 01:42:00,
2013-11-29 21:22:00,29.0,18.0,-100.00,SSE,161,7.0,11.0,64,0.00,,,0.00,1.000000,,2013-11-30 02:22:00,
2013-11-29 21:32:00,29.0,18.0,-100.00,SSE,161,7.0,11.0,64,0.00,,,0.00,1.000000,,2013-11-30 02:32:00,
2013-11-29 21:42:00,29.0,18.0,-100.00,SSE,161,7.0,11.0,64,0.00,,,0.00,1.000000,,2013-11-30 02:42:00,
2013-11-29 22:11:00,29.0,19.0,-100.00,South,169,6.0,12.0,67,0.00,,,0.00,1.000000,,2013-11-30 03:11:00,
2013-11-29 22:22:00,29.0,19.0,-100.00,South,169,6.0,12.0,67,0.00,,,0.00,1.000000,,2013-11-30 03:22:00,
2013-11-29 22:33:00,29.0,19.0,-100.00,South,169,6.0,12.0,67,0.00,,,0.00,1.000000,,2013-11-30 03:33:00,
2013-11-29 22:43:00,29.0,19.0,-100.00,South,169,6.0,12.0,67,0.00,,,0.00,1.000000,,2013-11-30 03:43:00,
2013-11-29 23:13:00,28.0,20.0,-100.00,SSE,165,4.0,10.0,70,0.00,,,0.00,1.000000,,2013-11-30 04:13:00,
2013-11-29 23:23:00,28.0,20.0,-100.00,SSE,165,4.0,10.0,70,0.00,,,0.00,1.000000,,2013-11-30 04:23:00,
2013-11-29 23:33:00,28.0,20.0,-100.00,SSE,165,4.0,10.0,70,0.00,,,0.00,1.000000,,2013-11-30 04:33:00,
2013-11-29 23:43:00,28.0,20.0,-100.00,SSE,165,4.0,10.0,70,0.00,,,0.00,1.000000,,2013-11-30 04:43:00,